Hauptseite
METAR-TAF:

METAR-TAF

Flughäfen :

Conakry, Guinea

Flughafen Conakry

Breite: 09-34N, Länge: 013-37W, Höhe: 26 m

Beobachtung

Neuester Wetterbericht von vor 41 Minuten, um 14:00 UTC
Wind 4 kt aus Süd
Temperatur 27°C
Luftfeuchtigkeit 89%
Luftdruck 1013 hPa
Sichtweite 10 km oder mehr
Durchbrochene Bewölkung in der Höhe von 1300 ft
Durchbrochene Bewölkung in der Höhe von 10000 ft

METAR: GUCY 221400Z 17004KT 9999 BKN013 BKN100 27/25 Q1013 NOSIG

Zeit: 14:41 (14:41 UTC)


TAF: fehlend

Wetterbeobachtungen und Prognosen von mehr als 4000 Flughäfen (METAR und TAF Bericht).

Die verfügbaren Stationen werden durch gelbe und rote Markierungen auf der Karte dargestellt.

Führen Sie die Maus auf sie, um den Namen der Station zu sehen.

Darauf klicken, um die Beobachtung von Wetterbeobachtungen und Prognosen zu sehen.

Um die Karte zu ändern : klicken Sie auf den grünen Tasten mit einem schwarzen Kreuz Zum Vergrößern, auf den grünen Button mit einem Gedankenstrich zu verkleinern, oder auf die grünen Pfeile für benachbarte Karten.


METAR-TAF: